Terminal Aerodrome Forecast
Issued by NWS

Current Version | Previous Version | Text Only | Print | Product List | Glossary On
Versions: 1 2 3 4 5 6 7 8 9 10 11 12 13 14 15 16 17 18 19 20 21 22 23
000
FTPA31 PHFO 162300
TAFKOA
TAF
PHKO 162329Z 1700/1724 25011KT P6SM SCT030 BKN060
     FM170400 13008KT P6SM SCT050
     FM171200 VRB05KT P6SM FEW050
     FM172000 25011KT P6SM SCT050=

USA.gov is the U.S. government's official web portal to all federal, state and local government web resources and services.